sensor_id;sensor_type;location;lat;lon;timestamp;pressure;altitude;pressure_sealevel;temperature;humidity
63343;BME280;49465;57.664;39.686;2023-04-15T00:00:12;102043.56;;;2.97;26.63
63343;BME280;49465;57.664;39.686;2023-04-15T00:02:38;102047.03;;;2.93;27.17
63343;BME280;49465;57.664;39.686;2023-04-15T00:05:05;102049.63;;;2.94;27.41
63343;BME280;49465;57.664;39.686;2023-04-15T00:07:32;102050.53;;;2.89;27.44
63343;BME280;49465;57.664;39.686;2023-04-15T00:10:01;102057.44;;;2.87;27.45
63343;BME280;49465;57.664;39.686;2023-04-15T00:12:29;102054.84;;;2.85;27.03
63343;BME280;49465;57.664;39.686;2023-04-15T00:14:55;102059.19;;;2.77;27.36
63343;BME280;49465;57.664;39.686;2023-04-15T00:17:23;102056.59;;;2.74;27.75
63343;BME280;49465;57.664;39.686;2023-04-15T00:19:50;102057.50;;;2.70;26.96
63343;BME280;49465;57.664;39.686;2023-04-15T00:22:22;102067.84;;;2.68;27.60
63343;BME280;49465;57.664;39.686;2023-04-15T00:24:51;102070.47;;;2.65;27.32
63343;BME280;49465;57.664;39.686;2023-04-15T00:27:18;102072.19;;;2.63;27.55
63343;BME280;49465;57.664;39.686;2023-04-15T00:29:49;102075.66;;;2.62;27.48
63343;BME280;49465;57.664;39.686;2023-04-15T00:32:18;102076.53;;;2.63;27.08
63343;BME280;49465;57.664;39.686;2023-04-15T00:34:45;102077.38;;;2.58;27.11
63343;BME280;49465;57.664;39.686;2023-04-15T00:37:14;102074.81;;;2.57;27.73
63343;BME280;49465;57.664;39.686;2023-04-15T00:39:41;102075.66;;;2.54;27.03
63343;BME280;49465;57.664;39.686;2023-04-15T00:42:09;102073.09;;;2.50;27.22
63343;BME280;49465;57.664;39.686;2023-04-15T00:44:36;102076.53;;;2.49;27.61
63343;BME280;49465;57.664;39.686;2023-04-15T00:47:06;102087.75;;;2.54;27.71
63343;BME280;49465;57.664;39.686;2023-04-15T00:49:32;102089.50;;;2.43;27.30
63343;BME280;49465;57.664;39.686;2023-04-15T00:52:02;102091.25;;;2.44;27.34
63343;BME280;49465;57.664;39.686;2023-04-15T00:54:29;102092.13;;;2.40;27.39
63343;BME280;49465;57.664;39.686;2023-04-15T00:56:55;102097.28;;;2.36;27.42
63343;BME280;49465;57.664;39.686;2023-04-15T00:59:23;102097.28;;;2.36;27.45
63343;BME280;49465;57.664;39.686;2023-04-15T01:01:49;102099.00;;;2.34;27.48
63343;BME280;49465;57.664;39.686;2023-04-15T01:04:16;102099.03;;;2.31;27.40
63343;BME280;49465;57.664;39.686;2023-04-15T01:06:45;102089.53;;;2.30;27.67
63343;BME280;49465;57.664;39.686;2023-04-15T01:09:13;102105.06;;;2.29;27.76
63343;BME280;49465;57.664;39.686;2023-04-15T01:11:42;102098.16;;;2.26;27.42
63343;BME280;49465;57.664;39.686;2023-04-15T01:14:09;102102.47;;;2.24;27.58
63343;BME280;49465;57.664;39.686;2023-04-15T01:16:37;102104.19;;;2.25;27.53
63343;BME280;49465;57.664;39.686;2023-04-15T01:19:08;102105.91;;;2.38;27.42
63343;BME280;49465;57.664;39.686;2023-04-15T01:21:39;102113.69;;;2.25;27.55
63343;BME280;49465;57.664;39.686;2023-04-15T01:24:09;102112.81;;;2.35;27.89
63343;BME280;49465;57.664;39.686;2023-04-15T01:26:39;102117.13;;;2.33;27.97
63343;BME280;49465;57.664;39.686;2023-04-15T01:29:06;102109.38;;;2.14;27.95
63343;BME280;49465;57.664;39.686;2023-04-15T01:31:33;102118.03;;;2.12;27.66
63343;BME280;49465;57.664;39.686;2023-04-15T01:34:00;102110.25;;;2.10;27.85
63343;BME280;49465;57.664;39.686;2023-04-15T01:36:27;102111.09;;;2.08;27.91
63343;BME280;49465;57.664;39.686;2023-04-15T01:38:55;102117.16;;;2.07;27.84
63343;BME280;49465;57.664;39.686;2023-04-15T01:41:28;102118.00;;;2.29;27.76
63343;BME280;49465;57.664;39.686;2023-04-15T01:43:55;102125.78;;;2.07;27.94
63343;BME280;49465;57.664;39.686;2023-04-15T01:46:22;102121.44;;;2.02;27.85
63343;BME280;49465;57.664;39.686;2023-04-15T01:48:48;102122.34;;;2.01;28.04
63343;BME280;49465;57.664;39.686;2023-04-15T01:51:15;102118.03;;;1.96;28.38
63343;BME280;49465;57.664;39.686;2023-04-15T01:53:41;102119.75;;;1.94;28.29
63343;BME280;49465;57.664;39.686;2023-04-15T01:56:08;102133.53;;;1.93;28.61
63343;BME280;49465;57.664;39.686;2023-04-15T01:58:34;102133.53;;;1.90;28.10
63343;BME280;49465;57.664;39.686;2023-04-15T02:01:00;102130.94;;;1.89;28.34
63343;BME280;49465;57.664;39.686;2023-04-15T02:03:28;102136.97;;;1.88;28.22
63343;BME280;49465;57.664;39.686;2023-04-15T02:05:54;102138.69;;;1.84;28.55
63343;BME280;49465;57.664;39.686;2023-04-15T02:08:21;102148.16;;;1.82;28.41
63343;BME280;49465;57.664;39.686;2023-04-15T02:10:48;102143.00;;;1.81;28.93
63343;BME280;49465;57.664;39.686;2023-04-15T02:13:14;102146.44;;;1.78;28.85
63343;BME280;49465;57.664;39.686;2023-04-15T02:15:47;102150.75;;;1.96;28.48
63343;BME280;49465;57.664;39.686;2023-04-15T02:18:14;102152.50;;;1.77;28.49
63343;BME280;49465;57.664;39.686;2023-04-15T02:20:41;102153.34;;;1.73;28.79
63343;BME280;49465;57.664;39.686;2023-04-15T02:23:08;102163.66;;;1.70;28.87
63343;BME280;49465;57.664;39.686;2023-04-15T02:25:36;102155.91;;;1.67;28.76
63343;BME280;49465;57.664;39.686;2023-04-15T02:28:04;102164.53;;;1.66;29.12
63343;BME280;49465;57.664;39.686;2023-04-15T02:30:32;102164.50;;;1.63;29.33
63343;BME280;49465;57.664;39.686;2023-04-15T02:32:59;102164.53;;;1.61;29.33
63343;BME280;49465;57.664;39.686;2023-04-15T02:35:26;102170.53;;;1.60;29.19
63343;BME280;49465;57.664;39.686;2023-04-15T02:37:52;102174.84;;;1.56;29.64
63343;BME280;49465;57.664;39.686;2023-04-15T02:40:19;102175.69;;;1.54;29.44
63343;BME280;49465;57.664;39.686;2023-04-15T02:42:45;102177.41;;;1.50;30.05
63343;BME280;49465;57.664;39.686;2023-04-15T02:45:12;102174.81;;;1.47;30.09
63343;BME280;49465;57.664;39.686;2023-04-15T02:47:38;102182.56;;;1.46;30.17
63343;BME280;49465;57.664;39.686;2023-04-15T02:50:11;102197.25;;;1.54;30.23
63343;BME280;49465;57.664;39.686;2023-04-15T02:52:41;102198.13;;;1.58;30.48
63343;BME280;49465;57.664;39.686;2023-04-15T02:55:08;102192.00;;;1.41;30.94
63343;BME280;49465;57.664;39.686;2023-04-15T02:57:35;102192.00;;;1.39;31.29
63343;BME280;49465;57.664;39.686;2023-04-15T03:00:06;102192.88;;;1.38;30.58
63343;BME280;49465;57.664;39.686;2023-04-15T03:02:40;102202.41;;;1.53;30.53
63343;BME280;49465;57.664;39.686;2023-04-15T03:05:12;102205.00;;;1.54;30.10
63343;BME280;49465;57.664;39.686;2023-04-15T03:07:38;102206.66;;;1.37;30.03
63343;BME280;49465;57.664;39.686;2023-04-15T03:10:08;102203.19;;;1.35;30.16
63343;BME280;49465;57.664;39.686;2023-04-15T03:12:35;102202.34;;;1.36;29.75
63343;BME280;49465;57.664;39.686;2023-04-15T03:15:01;102205.78;;;1.36;29.85
63343;BME280;49465;57.664;39.686;2023-04-15T03:17:30;102211.81;;;1.37;30.16
63343;BME280;49465;57.664;39.686;2023-04-15T03:19:56;102214.44;;;1.40;30.04
63343;BME280;49465;57.664;39.686;2023-04-15T03:22:23;102217.88;;;1.41;29.84
63343;BME280;49465;57.664;39.686;2023-04-15T03:24:50;102218.75;;;1.44;29.34
63343;BME280;49465;57.664;39.686;2023-04-15T03:27:16;102222.22;;;1.48;29.42
63343;BME280;49465;57.664;39.686;2023-04-15T03:29:42;102218.78;;;1.50;29.85
63343;BME280;49465;57.664;39.686;2023-04-15T03:32:09;102230.00;;;1.55;29.41
63343;BME280;49465;57.664;39.686;2023-04-15T03:34:37;102229.16;;;1.60;29.05
63343;BME280;49465;57.664;39.686;2023-04-15T03:37:05;102237.81;;;1.71;29.21
63343;BME280;49465;57.664;39.686;2023-04-15T03:39:32;102238.66;;;1.70;29.17
63343;BME280;49465;57.664;39.686;2023-04-15T03:41:58;102247.31;;;1.75;29.41
63343;BME280;49465;57.664;39.686;2023-04-15T03:44:26;102249.09;;;1.87;29.15
63343;BME280;49465;57.664;39.686;2023-04-15T03:46:53;102249.94;;;1.89;29.22
63343;BME280;49465;57.664;39.686;2023-04-15T03:49:19;102249.94;;;1.93;29.61
63343;BME280;49465;57.664;39.686;2023-04-15T03:51:47;102247.41;;;2.04;29.06
63343;BME280;49465;57.664;39.686;2023-04-15T03:54:14;102251.72;;;2.14;28.72
63343;BME280;49465;57.664;39.686;2023-04-15T03:56:41;102256.06;;;2.26;28.58
63343;BME280;49465;57.664;39.686;2023-04-15T03:59:07;102252.63;;;2.38;28.67
63343;BME280;49465;57.664;39.686;2023-04-15T04:01:33;102263.00;;;2.47;28.21
63343;BME280;49465;57.664;39.686;2023-04-15T04:04:00;102266.44;;;2.60;28.18
63343;BME280;49465;57.664;39.686;2023-04-15T04:06:27;102271.63;;;2.69;28.48
63343;BME280;49465;57.664;39.686;2023-04-15T04:08:53;102269.03;;;2.83;28.25
63343;BME280;49465;57.664;39.686;2023-04-15T04:11:19;102271.59;;;2.94;28.13
63343;BME280;49465;57.664;39.686;2023-04-15T04:13:48;102276.78;;;3.09;28.16
63343;BME280;49465;57.664;39.686;2023-04-15T04:16:14;102284.53;;;3.25;27.95
63343;BME280;49465;57.664;39.686;2023-04-15T04:18:41;102280.19;;;3.38;27.67
63343;BME280;49465;57.664;39.686;2023-04-15T04:21:07;102281.88;;;3.49;27.56
63343;BME280;49465;57.664;39.686;2023-04-15T04:23:34;102279.25;;;3.65;27.96
63343;BME280;49465;57.664;39.686;2023-04-15T04:26:00;102279.19;;;3.79;27.28
63343;BME280;49465;57.664;39.686;2023-04-15T04:28:27;102293.78;;;3.96;27.76
63343;BME280;49465;57.664;39.686;2023-04-15T04:30:53;102295.47;;;4.07;27.56
63343;BME280;49465;57.664;39.686;2023-04-15T04:33:20;102291.91;;;4.26;27.21
63343;BME280;49465;57.664;39.686;2023-04-15T04:35:46;102286.56;;;4.45;27.68
63343;BME280;49465;57.664;39.686;2023-04-15T04:38:12;102293.38;;;4.61;26.47
63343;BME280;49465;57.664;39.686;2023-04-15T04:40:39;102289.78;;;4.81;26.72
63343;BME280;49465;57.664;39.686;2023-04-15T04:43:06;102286.16;;;4.97;26.21
63343;BME280;49465;57.664;39.686;2023-04-15T04:45:32;102290.34;;;5.12;26.57
63343;BME280;49465;57.664;39.686;2023-04-15T04:48:00;102290.16;;;5.29;26.31
63343;BME280;49465;57.664;39.686;2023-04-15T04:50:35;102289.97;;;5.49;25.92
63343;BME280;49465;57.664;39.686;2023-04-15T04:53:02;102295.81;;;5.68;25.79
63343;BME280;49465;57.664;39.686;2023-04-15T04:55:34;102284.28;;;5.86;25.63
63343;BME280;49465;57.664;39.686;2023-04-15T04:58:02;102284.97;;;6.05;25.13
63343;BME280;49465;57.664;39.686;2023-04-15T05:00:28;102287.34;;;6.20;25.42
63343;BME280;49465;57.664;39.686;2023-04-15T05:03:00;102291.44;;;6.37;24.86
63343;BME280;49465;57.664;39.686;2023-04-15T05:05:29;102290.28;;;6.54;25.30
63343;BME280;49465;57.664;39.686;2023-04-15T05:07:55;102288.25;;;6.75;24.48
63343;BME280;49465;57.664;39.686;2023-04-15T05:10:22;102304.50;;;6.89;24.62
63343;BME280;49465;57.664;39.686;2023-04-15T05:12:51;102295.50;;;7.07;24.70
63343;BME280;49465;57.664;39.686;2023-04-15T05:15:20;102292.63;;;7.21;24.38
63343;BME280;49465;57.664;39.686;2023-04-15T05:17:50;102304.25;;;7.53;24.64
63343;BME280;49465;57.664;39.686;2023-04-15T05:20:22;102299.56;;;7.69;23.85
63343;BME280;49465;57.664;39.686;2023-04-15T05:23:03;102303.50;;;7.90;24.24
63343;BME280;49465;57.664;39.686;2023-04-15T05:25:29;102300.66;;;7.99;23.65
63343;BME280;49465;57.664;39.686;2023-04-15T05:27:56;102296.78;;;8.17;23.68
63343;BME280;49465;57.664;39.686;2023-04-15T05:30:25;102299.88;;;8.35;23.87
63343;BME280;49465;57.664;39.686;2023-04-15T05:32:58;102301.00;;;8.63;23.88
63343;BME280;49465;57.664;39.686;2023-04-15T05:35:24;102294.78;;;8.67;23.33
63343;BME280;49465;57.664;39.686;2023-04-15T05:37:53;102301.31;;;8.85;23.46
63343;BME280;49465;57.664;39.686;2023-04-15T05:40:22;102305.06;;;9.09;22.83
63343;BME280;49465;57.664;39.686;2023-04-15T05:42:49;102293.44;;;9.21;22.98
63343;BME280;49465;57.664;39.686;2023-04-15T05:45:16;102298.31;;;9.34;22.29
63343;BME280;49465;57.664;39.686;2023-04-15T05:47:42;102295.97;;;9.56;23.02
63343;BME280;49465;57.664;39.686;2023-04-15T05:50:09;102297.28;;;9.70;22.78
63343;BME280;49465;57.664;39.686;2023-04-15T05:52:38;102301.94;;;9.90;22.98
63343;BME280;49465;57.664;39.686;2023-04-15T05:55:05;102306.69;;;10.07;22.05
63343;BME280;49465;57.664;39.686;2023-04-15T05:57:32;102306.97;;;10.26;21.89
63343;BME280;49465;57.664;39.686;2023-04-15T06:00:04;102309.56;;;10.56;22.13
63343;BME280;49465;57.664;39.686;2023-04-15T06:02:32;102315.06;;;10.75;21.92
63343;BME280;49465;57.664;39.686;2023-04-15T06:05:01;102312.75;;;10.93;21.00
63343;BME280;49465;57.664;39.686;2023-04-15T06:07:29;102316.50;;;11.11;22.17
63343;BME280;49465;57.664;39.686;2023-04-15T06:36:51;102311.41;;;12.49;19.50
63343;BME280;49465;57.664;39.686;2023-04-15T06:39:22;102308.56;;;12.96;19.64
63343;BME280;49465;57.664;39.686;2023-04-15T06:41:49;102295.28;;;13.20;20.13
63343;BME280;49465;57.664;39.686;2023-04-15T06:44:18;102297.00;;;13.41;20.02
63343;BME280;49465;57.664;39.686;2023-04-15T06:46:49;102297.53;;;13.69;20.33
63343;BME280;49465;57.664;39.686;2023-04-15T06:49:19;102291.91;;;13.76;19.63
63343;BME280;49465;57.664;39.686;2023-04-15T06:51:46;102292.75;;;13.96;20.11
63343;BME280;49465;57.664;39.686;2023-04-15T06:54:19;102296.09;;;14.18;20.16
63343;BME280;49465;57.664;39.686;2023-04-15T06:56:48;102302.50;;;14.32;19.84
63343;BME280;49465;57.664;39.686;2023-04-15T06:59:21;102300.81;;;14.48;19.01
63343;BME280;49465;57.664;39.686;2023-04-15T07:01:50;102303.50;;;14.66;19.76
63343;BME280;49465;57.664;39.686;2023-04-15T07:04:19;102313.16;;;14.84;17.66
63343;BME280;49465;57.664;39.686;2023-04-15T07:06:46;102302.41;;;14.87;18.77
63343;BME280;49465;57.664;39.686;2023-04-15T07:09:18;102309.66;;;15.01;19.31
63343;BME280;49465;57.664;39.686;2023-04-15T07:11:46;102307.84;;;15.19;19.02
63343;BME280;49465;57.664;39.686;2023-04-15T07:14:15;102295.69;;;15.32;18.99
63343;BME280;49465;57.664;39.686;2023-04-15T07:16:47;102305.38;;;15.49;18.96
63343;BME280;49465;57.664;39.686;2023-04-15T07:19:15;102305.06;;;15.55;19.25
63343;BME280;49465;57.664;39.686;2023-04-15T07:21:45;102297.16;;;15.71;19.00
63343;BME280;49465;57.664;39.686;2023-04-15T07:24:15;102301.22;;;15.78;17.86
63343;BME280;49465;57.664;39.686;2023-04-15T07:26:43;102309.56;;;15.87;18.73
63343;BME280;49465;57.664;39.686;2023-04-15T07:29:10;102313.50;;;15.95;18.17
63343;BME280;49465;57.664;39.686;2023-04-15T07:31:39;102311.44;;;16.16;18.89
63343;BME280;49465;57.664;39.686;2023-04-15T07:34:09;102293.34;;;16.09;18.07
63343;BME280;49465;57.664;39.686;2023-04-15T07:36:44;102309.06;;;16.28;18.15
63343;BME280;49465;57.664;39.686;2023-04-15T07:39:20;102303.25;;;16.37;18.60
63343;BME280;49465;57.664;39.686;2023-04-15T07:41:49;102309.03;;;16.44;18.55
63343;BME280;49465;57.664;39.686;2023-04-15T07:44:16;102307.06;;;16.47;18.25
63343;BME280;49465;57.664;39.686;2023-04-15T07:46:45;102311.09;;;16.54;17.52
63343;BME280;49465;57.664;39.686;2023-04-15T07:49:11;102311.97;;;16.69;17.23
63343;BME280;49465;57.664;39.686;2023-04-15T07:51:38;102306.50;;;16.72;18.02
63343;BME280;49465;57.664;39.686;2023-04-15T07:54:05;102308.88;;;16.77;17.43
63343;BME280;49465;57.664;39.686;2023-04-15T07:56:31;102305.66;;;16.88;17.61
63343;BME280;49465;57.664;39.686;2023-04-15T07:58:57;102303.00;;;16.88;17.19
63343;BME280;49465;57.664;39.686;2023-04-15T08:01:28;102324.13;;;17.04;17.99
63343;BME280;49465;57.664;39.686;2023-04-15T08:03:55;102308.59;;;16.97;17.41
63343;BME280;49465;57.664;39.686;2023-04-15T08:06:22;102305.47;;;17.05;17.34
63343;BME280;49465;57.664;39.686;2023-04-15T08:08:49;102302.56;;;17.10;17.66
63343;BME280;49465;57.664;39.686;2023-04-15T08:11:18;102304.09;;;17.14;16.65
63343;BME280;49465;57.664;39.686;2023-04-15T08:13:45;102293.94;;;17.20;16.51
63343;BME280;49465;57.664;39.686;2023-04-15T08:16:18;102299.16;;;17.36;16.97
63343;BME280;49465;57.664;39.686;2023-04-15T08:18:48;102305.78;;;18.01;18.73
63343;BME280;49465;57.664;39.686;2023-04-15T08:21:16;102300.31;;;17.47;17.65
63343;BME280;49465;57.664;39.686;2023-04-15T08:23:48;102300.41;;;17.59;17.56
63343;BME280;49465;57.664;39.686;2023-04-15T08:26:22;102295.38;;;17.69;16.31
63343;BME280;49465;57.664;39.686;2023-04-15T08:28:51;102293.09;;;17.63;16.96
63343;BME280;49465;57.664;39.686;2023-04-15T08:31:20;102291.41;;;17.76;17.53
63343;BME280;49465;57.664;39.686;2023-04-15T08:33:58;102297.66;;;17.90;17.60
63343;BME280;49465;57.664;39.686;2023-04-15T08:36:28;102291.84;;;17.83;17.42
63343;BME280;49465;57.664;39.686;2023-04-15T08:38:57;102286.19;;;17.75;17.04
63343;BME280;49465;57.664;39.686;2023-04-15T08:41:27;102289.28;;;17.82;16.86
63343;BME280;49465;57.664;39.686;2023-04-15T08:44:04;102299.72;;;17.99;17.51
63343;BME280;49465;57.664;39.686;2023-04-15T08:46:37;102293.81;;;18.08;17.19
63343;BME280;49465;57.664;39.686;2023-04-15T08:49:11;102286.66;;;17.96;16.33
63343;BME280;49465;57.664;39.686;2023-04-15T08:51:38;102288.41;;;18.77;17.87
63343;BME280;49465;57.664;39.686;2023-04-15T08:54:05;102286.59;;;18.10;16.47
63343;BME280;49465;57.664;39.686;2023-04-15T08:56:32;102278.56;;;18.12;16.84
63343;BME280;49465;57.664;39.686;2023-04-15T08:59:05;102279.75;;;18.21;16.88
63343;BME280;49465;57.664;39.686;2023-04-15T09:01:32;102272.09;;;18.16;16.18
63343;BME280;49465;57.664;39.686;2023-04-15T09:04:03;102281.47;;;18.22;16.72
63343;BME280;49465;57.664;39.686;2023-04-15T09:06:34;102263.63;;;18.24;16.48
63343;BME280;49465;57.664;39.686;2023-04-15T09:09:03;102274.16;;;18.25;16.55
63343;BME280;49465;57.664;39.686;2023-04-15T09:11:33;102271.50;;;18.25;16.64
63343;BME280;49465;57.664;39.686;2023-04-15T09:14:05;102272.00;;;18.17;16.35
63343;BME280;49465;57.664;39.686;2023-04-15T09:16:58;102281.19;;;18.66;17.44
63343;BME280;49465;57.664;39.686;2023-04-15T09:19:29;102284.19;;;18.47;17.29
63343;BME280;49465;57.664;39.686;2023-04-15T09:22:04;102271.09;;;18.44;16.53
63343;BME280;49465;57.664;39.686;2023-04-15T09:24:38;102277.13;;;18.61;16.86
63343;BME280;49465;57.664;39.686;2023-04-15T09:27:10;102276.66;;;18.54;16.54
63343;BME280;49465;57.664;39.686;2023-04-15T09:29:37;102270.38;;;18.42;16.63
63343;BME280;49465;57.664;39.686;2023-04-15T09:32:14;102272.31;;;18.80;15.80
63343;BME280;49465;57.664;39.686;2023-04-15T09:34:43;102273.72;;;18.71;16.79
63343;BME280;49465;57.664;39.686;2023-04-15T09:37:13;102269.06;;;18.62;16.36
63343;BME280;49465;57.664;39.686;2023-04-15T09:39:50;102270.03;;;18.74;16.27
63343;BME280;49465;57.664;39.686;2023-04-15T09:42:22;102269.69;;;18.66;15.28
63343;BME280;49465;57.664;39.686;2023-04-15T09:45:06;102267.66;;;18.69;15.89
63343;BME280;49465;57.664;39.686;2023-04-15T09:47:41;102269.47;;;18.69;16.14
63343;BME280;49465;57.664;39.686;2023-04-15T09:50:11;102266.91;;;18.54;16.30
63343;BME280;49465;57.664;39.686;2023-04-15T09:52:49;102274.16;;;18.65;16.19
63343;BME280;49465;57.664;39.686;2023-04-15T09:55:24;102267.47;;;18.72;16.14
63343;BME280;49465;57.664;39.686;2023-04-15T09:57:56;102266.91;;;18.67;15.58
63343;BME280;49465;57.664;39.686;2023-04-15T10:00:34;102269.84;;;18.50;16.20
63343;BME280;49465;57.664;39.686;2023-04-15T10:03:08;102257.88;;;18.57;15.64
63343;BME280;49465;57.664;39.686;2023-04-15T10:05:38;102257.03;;;18.56;16.29
63343;BME280;49465;57.664;39.686;2023-04-15T10:08:11;102256.81;;;18.60;15.88
63343;BME280;49465;57.664;39.686;2023-04-15T10:10:38;102264.50;;;18.64;15.74
63343;BME280;49465;57.664;39.686;2023-04-15T10:13:10;102260.44;;;18.71;16.04
63343;BME280;49465;57.664;39.686;2023-04-15T10:15:47;102257.78;;;18.58;16.31
63343;BME280;49465;57.664;39.686;2023-04-15T10:18:17;102253.16;;;18.48;15.73
63343;BME280;49465;57.664;39.686;2023-04-15T10:20:46;102259.56;;;18.45;16.07
63343;BME280;49465;57.664;39.686;2023-04-15T10:23:14;102256.47;;;18.51;16.28
63343;BME280;49465;57.664;39.686;2023-04-15T10:25:45;102253.31;;;18.59;16.47
63343;BME280;49465;57.664;39.686;2023-04-15T10:28:12;102245.38;;;18.05;15.78
63343;BME280;49465;57.664;39.686;2023-04-15T10:30:48;102241.13;;;18.02;15.98
63343;BME280;49465;57.664;39.686;2023-04-15T10:33:24;102242.13;;;17.87;16.26
63343;BME280;49465;57.664;39.686;2023-04-15T10:35:57;102246.25;;;17.49;16.02
63343;BME280;49465;57.664;39.686;2023-04-15T10:38:49;102244.63;;;17.61;16.05
63343;BME280;49465;57.664;39.686;2023-04-15T10:41:27;102243.09;;;17.57;16.42
63343;BME280;49465;57.664;39.686;2023-04-15T10:44:02;102230.06;;;17.39;16.13
63343;BME280;49465;57.664;39.686;2023-04-15T10:46:41;102231.66;;;17.56;16.50
63343;BME280;49465;57.664;39.686;2023-04-15T10:49:25;102244.81;;;17.15;15.93
63343;BME280;49465;57.664;39.686;2023-04-15T10:52:08;102234.41;;;17.26;15.99
63343;BME280;49465;57.664;39.686;2023-04-15T10:54:41;102238.47;;;17.03;16.09
63343;BME280;49465;57.664;39.686;2023-04-15T10:57:23;102235.47;;;17.24;16.05
63343;BME280;49465;57.664;39.686;2023-04-15T11:02:56;102227.22;;;17.28;16.62
63343;BME280;49465;57.664;39.686;2023-04-15T11:08:11;102229.28;;;16.94;15.98
63343;BME280;49465;57.664;39.686;2023-04-15T11:15:41;102233.78;;;16.78;16.11
63343;BME280;49465;57.664;39.686;2023-04-15T11:18:17;102223.03;;;16.95;16.44
63343;BME280;49465;57.664;39.686;2023-04-15T11:20:50;102216.84;;;16.80;16.08
63343;BME280;49465;57.664;39.686;2023-04-15T11:23:35;102217.91;;;16.78;16.14
63343;BME280;49465;57.664;39.686;2023-04-15T11:26:08;102212.09;;;16.71;16.39
63343;BME280;49465;57.664;39.686;2023-04-15T11:28:41;102219.88;;;16.74;16.03
63343;BME280;49465;57.664;39.686;2023-04-15T11:31:13;102225.50;;;16.84;16.01
63343;BME280;49465;57.664;39.686;2023-04-15T11:33:47;102205.75;;;16.74;16.24
63343;BME280;49465;57.664;39.686;2023-04-15T11:36:20;102202.72;;;16.66;15.95
63343;BME280;49465;57.664;39.686;2023-04-15T11:38:51;102200.94;;;16.80;16.26
63343;BME280;49465;57.664;39.686;2023-04-15T11:41:22;102208.84;;;16.82;16.67
63343;BME280;49465;57.664;39.686;2023-04-15T11:43:51;102202.78;;;16.50;16.49
63343;BME280;49465;57.664;39.686;2023-04-15T11:46:20;102207.63;;;16.72;16.37
63343;BME280;49465;57.664;39.686;2023-04-15T11:48:49;102199.16;;;16.81;16.44
63343;BME280;49465;57.664;39.686;2023-04-15T11:51:18;102204.22;;;16.55;16.07
63343;BME280;49465;57.664;39.686;2023-04-15T11:53:53;102204.06;;;16.73;16.34
63343;BME280;49465;57.664;39.686;2023-04-15T11:56:28;102199.16;;;16.81;16.86
63343;BME280;49465;57.664;39.686;2023-04-15T11:58:59;102200.81;;;16.98;16.49
63343;BME280;49465;57.664;39.686;2023-04-15T12:01:35;102194.63;;;16.83;16.27
63343;BME280;49465;57.664;39.686;2023-04-15T12:04:15;102200.44;;;17.04;16.42
63343;BME280;49465;57.664;39.686;2023-04-15T12:06:46;102195.78;;;16.93;15.96
63343;BME280;49465;57.664;39.686;2023-04-15T12:09:16;102197.59;;;16.93;16.60
63343;BME280;49465;57.664;39.686;2023-04-15T12:11:51;102187.28;;;16.88;16.25
63343;BME280;49465;57.664;39.686;2023-04-15T12:14:27;102187.66;;;17.11;16.90
63343;BME280;49465;57.664;39.686;2023-04-15T12:17:04;102185.38;;;17.33;16.50
63343;BME280;49465;57.664;39.686;2023-04-15T12:19:40;102188.78;;;17.07;16.31
63343;BME280;49465;57.664;39.686;2023-04-15T12:22:20;102190.56;;;17.20;16.29
63343;BME280;49465;57.664;39.686;2023-04-15T12:25:01;102181.75;;;17.34;16.42
63343;BME280;49465;57.664;39.686;2023-04-15T12:27:28;102173.94;;;17.04;16.23
63343;BME280;49465;57.664;39.686;2023-04-15T12:30:06;102176.66;;;17.31;16.65
63343;BME280;49465;57.664;39.686;2023-04-15T12:32:43;102172.69;;;17.24;16.50
63343;BME280;49465;57.664;39.686;2023-04-15T12:35:16;102174.88;;;17.17;16.28
63343;BME280;49465;57.664;39.686;2023-04-15T12:37:49;102175.44;;;17.23;16.04
63343;BME280;49465;57.664;39.686;2023-04-15T12:40:22;102170.16;;;17.08;15.79
63343;BME280;49465;57.664;39.686;2023-04-15T12:42:51;102165.84;;;17.34;15.99
63343;BME280;49465;57.664;39.686;2023-04-15T12:45:27;102164.84;;;17.64;16.74
63343;BME280;49465;57.664;39.686;2023-04-15T12:47:56;102159.91;;;17.72;15.58
63343;BME280;49465;57.664;39.686;2023-04-15T12:50:23;102160.25;;;17.81;15.96
63343;BME280;49465;57.664;39.686;2023-04-15T12:52:59;102158.44;;;18.08;15.88
63343;BME280;49465;57.664;39.686;2023-04-15T12:55:25;102157.63;;;18.08;16.11
63343;BME280;49465;57.664;39.686;2023-04-15T12:57:58;102163.28;;;18.29;15.74
63343;BME280;49465;57.664;39.686;2023-04-15T13:00:27;102158.50;;;18.34;16.15
63343;BME280;49465;57.664;39.686;2023-04-15T13:02:53;102161.28;;;18.45;16.25
63343;BME280;49465;57.664;39.686;2023-04-15T13:05:20;102165.97;;;18.54;16.40
63343;BME280;49465;57.664;39.686;2023-04-15T13:07:52;102162.69;;;18.76;15.87
63343;BME280;49465;57.664;39.686;2023-04-15T13:10:27;102158.66;;;18.96;16.87
63343;BME280;49465;57.664;39.686;2023-04-15T13:12:57;102156.00;;;18.96;16.45
63343;BME280;49465;57.664;39.686;2023-04-15T13:15:23;102148.56;;;19.02;16.46
63343;BME280;49465;57.664;39.686;2023-04-15T13:17:53;102149.19;;;19.05;16.42
63343;BME280;49465;57.664;39.686;2023-04-15T13:20:19;102146.59;;;19.16;16.19
63343;BME280;49465;57.664;39.686;2023-04-15T13:22:45;102148.50;;;19.27;16.29
63343;BME280;49465;57.664;39.686;2023-04-15T13:25:14;102137.38;;;19.46;16.08
63343;BME280;49465;57.664;39.686;2023-04-15T13:27:41;102133.75;;;19.47;15.80
63343;BME280;49465;57.664;39.686;2023-04-15T13:30:08;102138.00;;;19.50;15.60
63343;BME280;49465;57.664;39.686;2023-04-15T13:32:35;102129.78;;;19.53;15.40
63343;BME280;49465;57.664;39.686;2023-04-15T13:35:01;102132.47;;;19.53;15.81